sensor_id;sensor_type;location;lat;lon;timestamp;pressure;altitude;pressure_sealevel;temperature
34125;BMP280;20110;53.120;5.786;2022-08-21T00:01:28;101706.56;;;21.38
34125;BMP280;20110;53.120;5.786;2022-08-21T00:03:55;101685.47;;;21.27
34125;BMP280;20110;53.120;5.786;2022-08-21T00:06:22;101708.72;;;21.40
34125;BMP280;20110;53.120;5.786;2022-08-21T00:08:51;101646.63;;;20.93
34125;BMP280;20110;53.120;5.786;2022-08-21T00:11:18;101653.88;;;21.01
34125;BMP280;20110;53.120;5.786;2022-08-21T00:13:44;101705.28;;;21.39
34125;BMP280;20110;53.120;5.786;2022-08-21T00:16:10;101689.44;;;21.26
34125;BMP280;20110;53.120;5.786;2022-08-21T00:18:36;101685.34;;;21.25
34125;BMP280;20110;53.120;5.786;2022-08-21T00:21:03;101663.59;;;21.13
34125;BMP280;20110;53.120;5.786;2022-08-21T00:23:29;101678.53;;;21.24
34125;BMP280;20110;53.120;5.786;2022-08-21T00:25:55;101691.75;;;21.29
34125;BMP280;20110;53.120;5.786;2022-08-21T00:28:21;101684.63;;;21.24
34125;BMP280;20110;53.120;5.786;2022-08-21T00:30:47;101699.28;;;21.31
34125;BMP280;20110;53.120;5.786;2022-08-21T00:33:13;101685.63;;;21.19
34125;BMP280;20110;53.120;5.786;2022-08-21T00:35:41;101692.31;;;21.18
34125;BMP280;20110;53.120;5.786;2022-08-21T00:38:08;101693.59;;;21.17
34125;BMP280;20110;53.120;5.786;2022-08-21T00:40:52;101663.91;;;20.81
34125;BMP280;20110;53.120;5.786;2022-08-21T00:43:27;101702.50;;;21.01
34125;BMP280;20110;53.120;5.786;2022-08-21T00:45:54;101654.66;;;20.65
34125;BMP280;20110;53.120;5.786;2022-08-21T00:48:22;101685.81;;;20.75
34125;BMP280;20110;53.120;5.786;2022-08-21T00:51:00;101693.03;;;20.73
34125;BMP280;20110;53.120;5.786;2022-08-21T00:53:29;101704.53;;;20.73
34125;BMP280;20110;53.120;5.786;2022-08-21T00:55:57;101687.75;;;20.65
34125;BMP280;20110;53.120;5.786;2022-08-21T00:58:26;101697.53;;;20.70
34125;BMP280;20110;53.120;5.786;2022-08-21T01:00:53;101678.63;;;20.61
34125;BMP280;20110;53.120;5.786;2022-08-21T01:03:23;101668.47;;;20.51
34125;BMP280;20110;53.120;5.786;2022-08-21T01:05:51;101673.78;;;20.59
34125;BMP280;20110;53.120;5.786;2022-08-21T01:08:19;101677.91;;;20.60
34125;BMP280;20110;53.120;5.786;2022-08-21T01:10:46;101639.44;;;20.33
34125;BMP280;20110;53.120;5.786;2022-08-21T01:13:17;101663.09;;;20.51
34125;BMP280;20110;53.120;5.786;2022-08-21T01:15:48;101684.56;;;20.59
34125;BMP280;20110;53.120;5.786;2022-08-21T01:18:18;101696.25;;;20.62
34125;BMP280;20110;53.120;5.786;2022-08-21T01:23:35;101674.72;;;20.44
34125;BMP280;20110;53.120;5.786;2022-08-21T01:26:03;101677.59;;;20.46
34125;BMP280;20110;53.120;5.786;2022-08-21T01:28:38;101661.97;;;20.28
34125;BMP280;20110;53.120;5.786;2022-08-21T01:31:08;101696.22;;;20.52
34125;BMP280;20110;53.120;5.786;2022-08-21T01:33:35;101686.66;;;20.51
34125;BMP280;20110;53.120;5.786;2022-08-21T01:36:01;101669.56;;;20.39
34125;BMP280;20110;53.120;5.786;2022-08-21T01:38:27;101667.44;;;20.37
34125;BMP280;20110;53.120;5.786;2022-08-21T01:40:53;101661.84;;;20.26
34125;BMP280;20110;53.120;5.786;2022-08-21T01:43:19;101675.78;;;20.32
34125;BMP280;20110;53.120;5.786;2022-08-21T01:45:45;101680.34;;;20.39
34125;BMP280;20110;53.120;5.786;2022-08-21T01:48:10;101670.41;;;20.32
34125;BMP280;20110;53.120;5.786;2022-08-21T01:50:37;101682.63;;;20.33
34125;BMP280;20110;53.120;5.786;2022-08-21T01:53:03;101675.06;;;20.31
34125;BMP280;20110;53.120;5.786;2022-08-21T01:55:30;101666.53;;;20.25
34125;BMP280;20110;53.120;5.786;2022-08-21T01:57:58;101666.38;;;20.23
34125;BMP280;20110;53.120;5.786;2022-08-21T02:00:25;101674.38;;;20.31
34125;BMP280;20110;53.120;5.786;2022-08-21T02:02:51;101670.97;;;20.30
34125;BMP280;20110;53.120;5.786;2022-08-21T02:05:18;101663.72;;;20.33
34125;BMP280;20110;53.120;5.786;2022-08-21T02:07:49;101664.16;;;20.39
34125;BMP280;20110;53.120;5.786;2022-08-21T02:10:25;101659.38;;;20.47
34125;BMP280;20110;53.120;5.786;2022-08-21T02:12:53;101647.19;;;20.46
34125;BMP280;20110;53.120;5.786;2022-08-21T02:15:19;101644.50;;;20.56
34125;BMP280;20110;53.120;5.786;2022-08-21T02:17:52;101654.03;;;20.57
34125;BMP280;20110;53.120;5.786;2022-08-21T02:20:31;101646.75;;;20.49
34125;BMP280;20110;53.120;5.786;2022-08-21T02:22:57;101622.59;;;20.42
34125;BMP280;20110;53.120;5.786;2022-08-21T02:25:26;101647.50;;;20.60
34125;BMP280;20110;53.120;5.786;2022-08-21T02:27:54;101619.31;;;20.43
34125;BMP280;20110;53.120;5.786;2022-08-21T02:30:31;101651.06;;;20.52
34125;BMP280;20110;53.120;5.786;2022-08-21T02:32:57;101646.50;;;20.55
34125;BMP280;20110;53.120;5.786;2022-08-21T02:35:24;101630.72;;;20.42
34125;BMP280;20110;53.120;5.786;2022-08-21T02:37:55;101647.19;;;20.46
34125;BMP280;20110;53.120;5.786;2022-08-21T02:40:26;101637.38;;;20.41
34125;BMP280;20110;53.120;5.786;2022-08-21T02:42:53;101615.91;;;20.16
34125;BMP280;20110;53.120;5.786;2022-08-21T02:45:20;101631.47;;;20.25
34125;BMP280;20110;53.120;5.786;2022-08-21T02:47:55;101625.44;;;20.17
34125;BMP280;20110;53.120;5.786;2022-08-21T02:50:30;101581.25;;;19.86
34125;BMP280;20110;53.120;5.786;2022-08-21T02:52:57;101568.50;;;19.86
34125;BMP280;20110;53.120;5.786;2022-08-21T02:55:26;101608.25;;;20.13
34125;BMP280;20110;53.120;5.786;2022-08-21T02:57:54;101600.75;;;20.11
34125;BMP280;20110;53.120;5.786;2022-08-21T03:00:22;101588.34;;;20.08
34125;BMP280;20110;53.120;5.786;2022-08-21T03:02:49;101610.78;;;20.37
34125;BMP280;20110;53.120;5.786;2022-08-21T03:05:16;101577.94;;;20.22
34125;BMP280;20110;53.120;5.786;2022-08-21T03:07:43;101607.00;;;20.50
34125;BMP280;20110;53.120;5.786;2022-08-21T03:10:10;101600.63;;;20.55
34125;BMP280;20110;53.120;5.786;2022-08-21T03:12:36;101574.44;;;20.38
34125;BMP280;20110;53.120;5.786;2022-08-21T03:15:09;101592.22;;;20.51
34125;BMP280;20110;53.120;5.786;2022-08-21T03:17:35;101562.66;;;20.34
34125;BMP280;20110;53.120;5.786;2022-08-21T03:20:04;101600.91;;;20.59
34125;BMP280;20110;53.120;5.786;2022-08-21T03:22:30;101607.63;;;20.68
34125;BMP280;20110;53.120;5.786;2022-08-21T03:24:56;101578.47;;;20.57
34125;BMP280;20110;53.120;5.786;2022-08-21T03:27:22;101575.34;;;20.60
34125;BMP280;20110;53.120;5.786;2022-08-21T03:29:53;101574.97;;;20.64
34125;BMP280;20110;53.120;5.786;2022-08-21T03:32:20;101574.97;;;20.64
34125;BMP280;20110;53.120;5.786;2022-08-21T03:34:46;101541.81;;;20.44
34125;BMP280;20110;53.120;5.786;2022-08-21T03:37:13;101580.19;;;20.62
34125;BMP280;20110;53.120;5.786;2022-08-21T03:39:39;101566.81;;;20.54
34125;BMP280;20110;53.120;5.786;2022-08-21T03:42:07;101585.31;;;20.67
34125;BMP280;20110;53.120;5.786;2022-08-21T03:44:34;101578.06;;;20.70
34125;BMP280;20110;53.120;5.786;2022-08-21T03:47:00;101588.31;;;20.71
34125;BMP280;20110;53.120;5.786;2022-08-21T03:49:27;101504.78;;;20.18
34125;BMP280;20110;53.120;5.786;2022-08-21T03:51:53;101581.09;;;20.74
34125;BMP280;20110;53.120;5.786;2022-08-21T03:54:19;101577.81;;;20.75
34125;BMP280;20110;53.120;5.786;2022-08-21T03:56:45;101557.50;;;20.65
34125;BMP280;20110;53.120;5.786;2022-08-21T03:59:11;101581.53;;;20.80
34125;BMP280;20110;53.120;5.786;2022-08-21T04:01:37;101529.75;;;20.45
34125;BMP280;20110;53.120;5.786;2022-08-21T04:04:05;101584.34;;;20.82
34125;BMP280;20110;53.120;5.786;2022-08-21T04:06:32;101583.22;;;20.85
34125;BMP280;20110;53.120;5.786;2022-08-21T04:08:57;101549.09;;;20.61
34125;BMP280;20110;53.120;5.786;2022-08-21T04:11:23;101571.28;;;20.69
34125;BMP280;20110;53.120;5.786;2022-08-21T04:13:49;101561.19;;;20.69
34125;BMP280;20110;53.120;5.786;2022-08-21T04:16:15;101545.69;;;20.60
34125;BMP280;20110;53.120;5.786;2022-08-21T04:18:42;101559.75;;;20.68
34125;BMP280;20110;53.120;5.786;2022-08-21T04:21:10;101581.09;;;20.83
34125;BMP280;20110;53.120;5.786;2022-08-21T04:23:37;101563.63;;;20.75
34125;BMP280;20110;53.120;5.786;2022-08-21T04:26:03;101568.59;;;20.78
34125;BMP280;20110;53.120;5.786;2022-08-21T04:28:29;101584.66;;;20.86
34125;BMP280;20110;53.120;5.786;2022-08-21T04:30:55;101566.16;;;20.73
34125;BMP280;20110;53.120;5.786;2022-08-21T04:33:22;101577.13;;;21.04
34125;BMP280;20110;53.120;5.786;2022-08-21T04:35:49;101583.13;;;21.12
34125;BMP280;20110;53.120;5.786;2022-08-21T04:38:15;101578.84;;;21.18
34125;BMP280;20110;53.120;5.786;2022-08-21T04:40:41;101572.59;;;21.16
34125;BMP280;20110;53.120;5.786;2022-08-21T04:43:10;101583.41;;;21.25
34125;BMP280;20110;53.120;5.786;2022-08-21T04:45:43;101550.84;;;21.04
34125;BMP280;20110;53.120;5.786;2022-08-21T04:48:13;101532.50;;;20.93
34125;BMP280;20110;53.120;5.786;2022-08-21T04:51:05;101562.22;;;21.12
34125;BMP280;20110;53.120;5.786;2022-08-21T04:53:40;101580.72;;;21.25
34125;BMP280;20110;53.120;5.786;2022-08-21T04:56:12;101562.94;;;21.13
34125;BMP280;20110;53.120;5.786;2022-08-21T04:58:41;101563.75;;;21.15
34125;BMP280;20110;53.120;5.786;2022-08-21T05:01:15;101568.91;;;21.21
34125;BMP280;20110;53.120;5.786;2022-08-21T05:03:44;101585.97;;;21.43
34125;BMP280;20110;53.120;5.786;2022-08-21T05:06:14;101588.94;;;21.47
34125;BMP280;20110;53.120;5.786;2022-08-21T05:08:42;101592.78;;;21.53
34125;BMP280;20110;53.120;5.786;2022-08-21T05:11:09;101558.09;;;21.40
34125;BMP280;20110;53.120;5.786;2022-08-21T05:13:36;101566.91;;;21.50
34125;BMP280;20110;53.120;5.786;2022-08-21T05:16:02;101564.19;;;21.50
34125;BMP280;20110;53.120;5.786;2022-08-21T05:18:28;101586.63;;;21.72
34125;BMP280;20110;53.120;5.786;2022-08-21T05:20:54;101579.81;;;21.71
34125;BMP280;20110;53.120;5.786;2022-08-21T05:23:20;101550.25;;;21.54
34125;BMP280;20110;53.120;5.786;2022-08-21T05:25:46;101563.88;;;21.65
34125;BMP280;20110;53.120;5.786;2022-08-21T05:28:12;101599.34;;;22.00
34125;BMP280;20110;53.120;5.786;2022-08-21T05:30:38;101564.97;;;21.82
34125;BMP280;20110;53.120;5.786;2022-08-21T05:33:06;101600.34;;;22.05
34125;BMP280;20110;53.120;5.786;2022-08-21T05:35:33;101601.84;;;22.17
34125;BMP280;20110;53.120;5.786;2022-08-21T05:37:59;101610.91;;;22.32
34125;BMP280;20110;53.120;5.786;2022-08-21T05:40:26;101614.72;;;22.38
34125;BMP280;20110;53.120;5.786;2022-08-21T05:42:55;101610.56;;;22.47
34125;BMP280;20110;53.120;5.786;2022-08-21T05:45:24;101611.22;;;22.57
34125;BMP280;20110;53.120;5.786;2022-08-21T05:47:50;101563.34;;;22.29
34125;BMP280;20110;53.120;5.786;2022-08-21T05:50:15;101618.50;;;22.76
34125;BMP280;20110;53.120;5.786;2022-08-21T05:52:41;101619.16;;;22.86
34125;BMP280;20110;53.120;5.786;2022-08-21T05:55:07;101614.25;;;22.94
34125;BMP280;20110;53.120;5.786;2022-08-21T05:57:33;101618.28;;;23.04
34125;BMP280;20110;53.120;5.786;2022-08-21T05:59:59;101618.25;;;23.14
34125;BMP280;20110;53.120;5.786;2022-08-21T06:02:25;101611.88;;;23.21
34125;BMP280;20110;53.120;5.786;2022-08-21T06:04:50;101604.16;;;23.39
34125;BMP280;20110;53.120;5.786;2022-08-21T06:07:16;101580.94;;;23.24
34125;BMP280;20110;53.120;5.786;2022-08-21T06:09:42;101584.84;;;23.33
34125;BMP280;20110;53.120;5.786;2022-08-21T06:12:11;101618.13;;;23.57
34125;BMP280;20110;53.120;5.786;2022-08-21T06:14:40;101613.75;;;23.63
34125;BMP280;20110;53.120;5.786;2022-08-21T06:17:11;101603.28;;;23.69
34125;BMP280;20110;53.120;5.786;2022-08-21T06:19:38;101582.31;;;23.70
34125;BMP280;20110;53.120;5.786;2022-08-21T06:22:05;101612.16;;;23.93
34125;BMP280;20110;53.120;5.786;2022-08-21T06:24:31;101614.53;;;24.10
34125;BMP280;20110;53.120;5.786;2022-08-21T06:26:57;101604.63;;;24.15
34125;BMP280;20110;53.120;5.786;2022-08-21T06:29:23;101605.88;;;24.37
34125;BMP280;20110;53.120;5.786;2022-08-21T06:31:50;101610.69;;;24.50
34125;BMP280;20110;53.120;5.786;2022-08-21T06:34:17;101595.34;;;24.55
34125;BMP280;20110;53.120;5.786;2022-08-21T06:36:44;101519.16;;;24.16
34125;BMP280;20110;53.120;5.786;2022-08-21T06:39:10;101557.06;;;24.62
34125;BMP280;20110;53.120;5.786;2022-08-21T06:41:36;101569.28;;;24.75
34125;BMP280;20110;53.120;5.786;2022-08-21T06:44:02;101581.56;;;25.01
34125;BMP280;20110;53.120;5.786;2022-08-21T06:46:29;101594.84;;;25.20
34125;BMP280;20110;53.120;5.786;2022-08-21T06:48:56;101604.31;;;25.33
34125;BMP280;20110;53.120;5.786;2022-08-21T06:51:23;101581.56;;;25.27
34125;BMP280;20110;53.120;5.786;2022-08-21T06:53:51;101601.63;;;25.47
34125;BMP280;20110;53.120;5.786;2022-08-21T06:56:18;101593.69;;;25.51
34125;BMP280;20110;53.120;5.786;2022-08-21T06:58:45;101595.22;;;25.81
34125;BMP280;20110;53.120;5.786;2022-08-21T07:01:11;101592.31;;;26.04
34125;BMP280;20110;53.120;5.786;2022-08-21T07:03:40;101522.19;;;25.62
34125;BMP280;20110;53.120;5.786;2022-08-21T07:06:09;101613.03;;;26.39
34125;BMP280;20110;53.120;5.786;2022-08-21T07:08:36;101614.91;;;26.50
34125;BMP280;20110;53.120;5.786;2022-08-21T07:11:08;101592.41;;;26.79
34125;BMP280;20110;53.120;5.786;2022-08-21T07:13:34;101612.00;;;27.36
34125;BMP280;20110;53.120;5.786;2022-08-21T07:16:01;101607.78;;;27.48
34125;BMP280;20110;53.120;5.786;2022-08-21T07:18:27;101598.53;;;27.55
34125;BMP280;20110;53.120;5.786;2022-08-21T07:20:54;101595.91;;;27.58
34125;BMP280;20110;53.120;5.786;2022-08-21T07:23:29;101611.19;;;27.49
34125;BMP280;20110;53.120;5.786;2022-08-21T07:25:56;101606.28;;;27.30
34125;BMP280;20110;53.120;5.786;2022-08-21T07:28:22;101608.66;;;27.22
34125;BMP280;20110;53.120;5.786;2022-08-21T07:30:53;101628.00;;;27.28
34125;BMP280;20110;53.120;5.786;2022-08-21T07:33:20;101613.31;;;27.19
34125;BMP280;20110;53.120;5.786;2022-08-21T07:35:46;101548.91;;;26.51
34125;BMP280;20110;53.120;5.786;2022-08-21T07:38:12;101606.53;;;26.75
34125;BMP280;20110;53.120;5.786;2022-08-21T07:40:37;101582.56;;;26.72
34125;BMP280;20110;53.120;5.786;2022-08-21T07:43:04;101603.97;;;26.93
34125;BMP280;20110;53.120;5.786;2022-08-21T07:45:30;101609.88;;;27.03
34125;BMP280;20110;53.120;5.786;2022-08-21T07:47:56;101603.19;;;27.06
34125;BMP280;20110;53.120;5.786;2022-08-21T07:50:23;101613.59;;;27.25
34125;BMP280;20110;53.120;5.786;2022-08-21T07:52:48;101614.09;;;27.37
34125;BMP280;20110;53.120;5.786;2022-08-21T07:55:17;101622.03;;;27.47
34125;BMP280;20110;53.120;5.786;2022-08-21T07:57:43;101618.06;;;27.50
34125;BMP280;20110;53.120;5.786;2022-08-21T08:00:15;101618.53;;;27.44
34125;BMP280;20110;53.120;5.786;2022-08-21T08:02:46;101618.59;;;27.46
34125;BMP280;20110;53.120;5.786;2022-08-21T08:05:16;101608.66;;;27.37
34125;BMP280;20110;53.120;5.786;2022-08-21T08:07:43;101622.53;;;27.59
34125;BMP280;20110;53.120;5.786;2022-08-21T08:10:09;101620.78;;;27.66
34125;BMP280;20110;53.120;5.786;2022-08-21T08:12:39;101614.88;;;27.71
34125;BMP280;20110;53.120;5.786;2022-08-21T08:15:09;101598.00;;;27.59
34125;BMP280;20110;53.120;5.786;2022-08-21T08:17:35;101599.47;;;27.78
34125;BMP280;20110;53.120;5.786;2022-08-21T08:20:01;101581.34;;;27.69
34125;BMP280;20110;53.120;5.786;2022-08-21T08:22:28;101580.06;;;27.87
34125;BMP280;20110;53.120;5.786;2022-08-21T08:24:54;101626.16;;;28.48
34125;BMP280;20110;53.120;5.786;2022-08-21T08:27:21;101616.00;;;28.68
34125;BMP280;20110;53.120;5.786;2022-08-21T08:29:48;101595.00;;;28.55
34125;BMP280;20110;53.120;5.786;2022-08-21T08:32:14;101586.03;;;28.35
34125;BMP280;20110;53.120;5.786;2022-08-21T08:34:40;101590.41;;;28.42
34125;BMP280;20110;53.120;5.786;2022-08-21T08:37:08;101620.88;;;28.52
34125;BMP280;20110;53.120;5.786;2022-08-21T08:39:35;101590.94;;;28.38
34125;BMP280;20110;53.120;5.786;2022-08-21T08:42:19;101601.81;;;28.54
34125;BMP280;20110;53.120;5.786;2022-08-21T08:44:48;101597.19;;;28.59
34125;BMP280;20110;53.120;5.786;2022-08-21T08:47:18;101618.91;;;28.55
34125;BMP280;20110;53.120;5.786;2022-08-21T08:49:59;101594.25;;;28.35
34125;BMP280;20110;53.120;5.786;2022-08-21T08:52:31;101612.75;;;28.54
34125;BMP280;20110;53.120;5.786;2022-08-21T08:55:14;101592.00;;;28.84
34125;BMP280;20110;53.120;5.786;2022-08-21T08:57:48;101572.69;;;29.18
34125;BMP280;20110;53.120;5.786;2022-08-21T09:00:18;101607.94;;;29.49
34125;BMP280;20110;53.120;5.786;2022-08-21T09:02:46;101603.59;;;29.42
34125;BMP280;20110;53.120;5.786;2022-08-21T09:05:46;101592.59;;;29.20
34125;BMP280;20110;53.120;5.786;2022-08-21T09:08:24;101610.88;;;28.96
34125;BMP280;20110;53.120;5.786;2022-08-21T09:19:38;101614.28;;;28.24
34125;BMP280;20110;53.120;5.786;2022-08-21T09:22:28;101617.03;;;28.41
34125;BMP280;20110;53.120;5.786;2022-08-21T09:25:21;101625.97;;;28.79
34125;BMP280;20110;53.120;5.786;2022-08-21T09:27:48;101598.81;;;29.03
34125;BMP280;20110;53.120;5.786;2022-08-21T09:30:14;101610.16;;;29.55
34125;BMP280;20110;53.120;5.786;2022-08-21T09:32:41;101617.56;;;29.91
34125;BMP280;20110;53.120;5.786;2022-08-21T09:35:13;101631.38;;;30.17
34125;BMP280;20110;53.120;5.786;2022-08-21T09:40:41;101627.50;;;30.24
34125;BMP280;20110;53.120;5.786;2022-08-21T09:43:19;101620.53;;;30.21
34125;BMP280;20110;53.120;5.786;2022-08-21T09:45:49;101622.69;;;30.25
34125;BMP280;20110;53.120;5.786;2022-08-21T09:48:23;101615.69;;;30.20
34125;BMP280;20110;53.120;5.786;2022-08-21T09:50:52;101620.72;;;30.27
34125;BMP280;20110;53.120;5.786;2022-08-21T09:53:22;101600.91;;;30.29
34125;BMP280;20110;53.120;5.786;2022-08-21T09:56:03;101625.38;;;30.68
34125;BMP280;20110;53.120;5.786;2022-08-21T09:58:50;101608.22;;;30.93
34125;BMP280;20110;53.120;5.786;2022-08-21T10:01:25;101615.97;;;31.27
34125;BMP280;20110;53.120;5.786;2022-08-21T10:04:34;101629.44;;;32.00
34125;BMP280;20110;53.120;5.786;2022-08-21T10:07:10;101611.88;;;32.13
34125;BMP280;20110;53.120;5.786;2022-08-21T10:09:37;101621.81;;;32.62
34125;BMP280;20110;53.120;5.786;2022-08-21T10:12:15;101634.06;;;33.73
34125;BMP280;20110;53.120;5.786;2022-08-21T10:15:13;101635.25;;;33.61
34125;BMP280;20110;53.120;5.786;2022-08-21T10:20:45;101636.19;;;32.94
34125;BMP280;20110;53.120;5.786;2022-08-21T10:23:49;101634.66;;;34.15
34125;BMP280;20110;53.120;5.786;2022-08-21T10:29:51;101632.41;;;33.53
34125;BMP280;20110;53.120;5.786;2022-08-21T10:47:06;101649.38;;;34.34
34125;BMP280;20110;53.120;5.786;2022-08-21T10:52:46;101635.41;;;35.64
34125;BMP280;20110;53.120;5.786;2022-08-21T10:55:22;101641.84;;;36.13
34125;BMP280;20110;53.120;5.786;2022-08-21T10:58:30;101620.50;;;36.25
34125;BMP280;20110;53.120;5.786;2022-08-21T11:01:09;101648.38;;;35.41
34125;BMP280;20110;53.120;5.786;2022-08-21T11:04:04;101627.47;;;34.46
34125;BMP280;20110;53.120;5.786;2022-08-21T11:06:33;101636.19;;;34.88
34125;BMP280;20110;53.120;5.786;2022-08-21T11:09:14;101642.06;;;35.30
34125;BMP280;20110;53.120;5.786;2022-08-21T11:12:06;101639.53;;;35.63
34125;BMP280;20110;53.120;5.786;2022-08-21T11:15:03;101634.22;;;36.03
34125;BMP280;20110;53.120;5.786;2022-08-21T11:17:39;101625.22;;;35.99
34125;BMP280;20110;53.120;5.786;2022-08-21T11:20:26;101623.22;;;36.21
34125;BMP280;20110;53.120;5.786;2022-08-21T11:23:03;101630.78;;;36.07
34125;BMP280;20110;53.120;5.786;2022-08-21T11:25:41;101661.25;;;36.23
34125;BMP280;20110;53.120;5.786;2022-08-21T11:28:29;101632.91;;;36.22
34125;BMP280;20110;53.120;5.786;2022-08-21T11:31:24;101632.97;;;36.42
34125;BMP280;20110;53.120;5.786;2022-08-21T11:36:55;101628.50;;;35.67
34125;BMP280;20110;53.120;5.786;2022-08-21T11:42:29;101642.03;;;36.69
34125;BMP280;20110;53.120;5.786;2022-08-21T11:45:30;101647.44;;;36.19
34125;BMP280;20110;53.120;5.786;2022-08-21T11:50:36;101651.03;;;37.14
34125;BMP280;20110;53.120;5.786;2022-08-21T11:53:21;101648.28;;;37.16
34125;BMP280;20110;53.120;5.786;2022-08-21T11:56:06;101628.88;;;37.14
34125;BMP280;20110;53.120;5.786;2022-08-21T11:58:45;101644.09;;;37.11
34125;BMP280;20110;53.120;5.786;2022-08-21T12:01:35;101644.09;;;37.21
34125;BMP280;20110;53.120;5.786;2022-08-21T12:04:26;101639.81;;;36.21
34125;BMP280;20110;53.120;5.786;2022-08-21T12:06:53;101644.75;;;36.51
34125;BMP280;20110;53.120;5.786;2022-08-21T12:09:34;101660.72;;;37.13
34125;BMP280;20110;53.120;5.786;2022-08-21T12:12:30;101625.38;;;36.51
34125;BMP280;20110;53.120;5.786;2022-08-21T12:15:28;101647.44;;;36.19
34125;BMP280;20110;53.120;5.786;2022-08-21T12:18:23;101655.63;;;36.03
34125;BMP280;20110;53.120;5.786;2022-08-21T12:21:25;101666.97;;;36.93
34125;BMP280;20110;53.120;5.786;2022-08-21T12:24:35;101661.38;;;37.42
34125;BMP280;20110;53.120;5.786;2022-08-21T12:30:03;101658.53;;;37.78
34125;BMP280;20110;53.120;5.786;2022-08-21T12:32:58;101655.69;;;37.94
34125;BMP280;20110;53.120;5.786;2022-08-21T12:35:31;101649.97;;;38.33
34125;BMP280;20110;53.120;5.786;2022-08-21T12:38:15;101674.88;;;38.43
34125;BMP280;20110;53.120;5.786;2022-08-21T12:40:58;101659.03;;;38.17
34125;BMP280;20110;53.120;5.786;2022-08-21T12:43:38;101652.81;;;38.16
34125;BMP280;20110;53.120;5.786;2022-08-21T12:46:26;101658.50;;;37.88
34125;BMP280;20110;53.120;5.786;2022-08-21T12:49:03;101641.84;;;37.84
34125;BMP280;20110;53.120;5.786;2022-08-21T12:52:19;101670.41;;;37.30
34125;BMP280;20110;53.120;5.786;2022-08-21T12:54:46;101663.44;;;37.49
34125;BMP280;20110;53.120;5.786;2022-08-21T12:57:29;101675.94;;;37.32
34125;BMP280;20110;53.120;5.786;2022-08-21T13:00:00;101666.94;;;37.28
34125;BMP280;20110;53.120;5.786;2022-08-21T13:02:37;101651.06;;;37.12
34125;BMP280;20110;53.120;5.786;2022-08-21T13:05:26;101676.63;;;36.76
34125;BMP280;20110;53.120;5.786;2022-08-21T13:07:52;101663.84;;;35.82
34125;BMP280;20110;53.120;5.786;2022-08-21T13:10:26;101684.44;;;35.63
34125;BMP280;20110;53.120;5.786;2022-08-21T13:13:24;101661.94;;;36.17
34125;BMP280;20110;53.120;5.786;2022-08-21T13:16:05;101672.91;;;36.01
34125;BMP280;20110;53.120;5.786;2022-08-21T13:18:35;101676.59;;;35.29
34125;BMP280;20110;53.120;5.786;2022-08-21T13:21:13;101664.63;;;35.07
34125;BMP280;20110;53.120;5.786;2022-08-21T13:23:40;101687.91;;;34.86
34125;BMP280;20110;53.120;5.786;2022-08-21T13:26:19;101678.53;;;34.51
34125;BMP280;20110;53.120;5.786;2022-08-21T13:28:46;101675.50;;;34.29
34125;BMP280;20110;53.120;5.786;2022-08-21T13:31:25;101656.63;;;33.61
34125;BMP280;20110;53.120;5.786;2022-08-21T13:33:54;101671.28;;;33.32
34125;BMP280;20110;53.120;5.786;2022-08-21T13:36:27;101661.88;;;33.07
34125;BMP280;20110;53.120;5.786;2022-08-21T13:38:54;101666.56;;;33.00
34125;BMP280;20110;53.120;5.786;2022-08-21T13:41:26;101682.19;;;32.90
34125;BMP280;20110;53.120;5.786;2022-08-21T13:44:05;101662.41;;;32.64
34125;BMP280;20110;53.120;5.786;2022-08-21T13:46:34;101673.03;;;32.79
34125;BMP280;20110;53.120;5.786;2022-08-21T13:49:03;101680.94;;;32.61
34125;BMP280;20110;53.120;5.786;2022-08-21T13:51:32;101664.75;;;32.43
34125;BMP280;20110;53.120;5.786;2022-08-21T13:53:58;101679.19;;;32.76
34125;BMP280;20110;53.120;5.786;2022-08-21T13:56:30;101679.34;;;32.84
34125;BMP280;20110;53.120;5.786;2022-08-21T13:58:58;101668.88;;;32.78
34125;BMP280;20110;53.120;5.786;2022-08-21T14:01:28;101674.03;;;32.94
34125;BMP280;20110;53.120;5.786;2022-08-21T14:04:31;101670.66;;;33.35
34125;BMP280;20110;53.120;5.786;2022-08-21T14:06:58;101661.38;;;33.56
34125;BMP280;20110;53.120;5.786;2022-08-21T14:09:40;101670.19;;;33.49
34125;BMP280;20110;53.120;5.786;2022-08-21T14:12:26;101672.81;;;33.41
34125;BMP280;20110;53.120;5.786;2022-08-21T14:14:55;101667.78;;;33.27
34125;BMP280;20110;53.120;5.786;2022-08-21T14:17:34;101677.78;;;33.12
34125;BMP280;20110;53.120;5.786;2022-08-21T14:20:03;101664.50;;;33.01
34125;BMP280;20110;53.120;5.786;2022-08-21T14:25:03;101676.81;;;32.96
34125;BMP280;20110;53.120;5.786;2022-08-21T14:27:31;101663.31;;;33.10
34125;BMP280;20110;53.120;5.786;2022-08-21T14:30:03;101669.94;;;32.97
34125;BMP280;20110;53.120;5.786;2022-08-21T14:32:39;101698.78;;;32.94
34125;BMP280;20110;53.120;5.786;2022-08-21T14:35:06;101674.22;;;32.68
34125;BMP280;20110;53.120;5.786;2022-08-21T14:37:33;101651.06;;;32.47
34125;BMP280;20110;53.120;5.786;2022-08-21T14:39:58;101670.72;;;32.34
34125;BMP280;20110;53.120;5.786;2022-08-21T14:42:25;101669.50;;;32.09
34125;BMP280;20110;53.120;5.786;2022-08-21T14:44:52;101656.00;;;31.91
34125;BMP280;20110;53.120;5.786;2022-08-21T14:47:20;101681.91;;;32.12
34125;BMP280;20110;53.120;5.786;2022-08-21T14:49:46;101694.44;;;32.19
34125;BMP280;20110;53.120;5.786;2022-08-21T14:52:12;101694.34;;;32.15
34125;BMP280;20110;53.120;5.786;2022-08-21T14:54:38;101680.88;;;31.95
34125;BMP280;20110;53.120;5.786;2022-08-21T14:57:08;101702.63;;;31.87
34125;BMP280;20110;53.120;5.786;2022-08-21T14:59:36;101693.94;;;31.69
34125;BMP280;20110;53.120;5.786;2022-08-21T15:02:03;101682.13;;;31.37
34125;BMP280;20110;53.120;5.786;2022-08-21T15:04:33;101662.53;;;31.23
34125;BMP280;20110;53.120;5.786;2022-08-21T15:06:59;101692.72;;;31.23
34125;BMP280;20110;53.120;5.786;2022-08-21T15:09:25;101698.34;;;31.03
34125;BMP280;20110;53.120;5.786;2022-08-21T15:11:55;101692.34;;;30.85
34125;BMP280;20110;53.120;5.786;2022-08-21T15:14:26;101672.94;;;30.77